マニラ/ニノイ・アキノ の空港の天気 - METARとTAF

ニノイ・アキノ国際空港 ( RPLL / MNL ) - フィリピン マニラ
飛行場実況気象(Metar)
観測時間01/17 02:00 PHT (01/16 18:00 UTC)
風向・風速東 3m/s
視程10km以上
天気現象
少しの雲 雲底高度 760m
気温24℃
湿度74%
気圧1015hPa
METARRPLL 161800Z 10006KT 070V140 9999 FEW025 24/19 Q1015 NOSIG RMK A2997
過去の天気等 Google飛行場航空写真 Wunderground天気予報

過去48時間のMETAR

飛行場予報(TAF)
発表時間: 1/17 01:00 PHT (1/16 17:00 UTC)
予報対象時間: 17日2時 PHT ~ 18日8時 PHT
風向・風速東南東 4m/s
視程10km以上
少しの雲 雲底高度 760m
全天の4割程度の雲 雲底高度 3050m
17日2時 PHT ~ 17日8時 PHT に一時的に
風向・風速東 2m/s
少しの雲 雲底高度 760m
17日8時 PHT ~ 17日14時 PHT に一時的に
風向・風速東南東 7m/s
少しの雲 雲底高度 760m
全天の8割程度の雲 雲底高度 3050m
TAF RPLL 161700Z 1618/1724 11008KT 9999 FEW025 SCT100 TX30/1706Z TN23/1621Z
TEMPO 1618/1624 08004KT FEW025
TEMPO 1700/1706 12014KT FEW025 BKN100